Time;durP1;ratioP1;P1;durP2;ratioP2;P2;SDS_P1;SDS_P2;PMS_P1;PMS_P2;Temp;Humidity;BMP_temperature;BMP_pressure;BME280_temperature;BME280_humidity;BME280_pressure;Samples;Min_cycle;Max_cycle;Signal;HPM_P1;HPM_P2
2023/07/23 00:00:54;;;;;;;12.50;4.40;;;25.20;90.10;;;25.88;59.49;94965.31;5076259;28;20502;-60
2023/07/23 00:03:21;;;;;;;19.40;4.77;;;25.20;90.10;;;25.87;59.74;94955.59;5076557;28;20907;-61
2023/07/23 00:05:50;;;;;;;9.23;4.80;;;25.20;90.40;;;25.85;60.14;94957.69;5076062;28;20540;-62
2023/07/23 00:08:18;;;;;;;22.30;4.97;;;25.20;90.60;;;25.84;59.63;94961.44;5076154;28;20450;-61
2023/07/23 00:10:45;;;;;;;7.30;4.67;;;25.20;90.70;;;25.82;59.70;94966.25;5075902;28;20844;-63
2023/07/23 00:13:14;;;;;;;16.73;5.43;;;25.10;90.70;;;25.82;59.71;94971.63;5075223;28;20512;-63
2023/07/23 00:15:41;;;;;;;11.83;5.10;;;25.10;90.60;;;25.82;59.58;94967.06;5073090;28;20462;-61
2023/07/23 00:18:08;;;;;;;16.47;5.50;;;25.10;90.60;;;25.84;59.85;94966.81;5078830;28;20457;-59
2023/07/23 00:20:35;;;;;;;20.60;5.23;;;25.10;90.70;;;25.84;59.80;94974.91;5076356;28;20795;-60
2023/07/23 00:23:03;;;;;;;14.47;6.10;;;25.10;90.90;;;25.84;60.07;94970.38;5079684;28;20526;-62
2023/07/23 00:25:30;;;;;;;15.80;4.63;;;25.10;90.80;;;25.84;60.14;94985.69;5080053;28;21057;-62
2023/07/23 00:27:57;;;;;;;32.07;5.73;;;25.10;90.90;;;25.81;60.03;94976.22;5074741;28;20499;-61
2023/07/23 00:30:26;;;;;;;7.83;5.40;;;25.10;91.00;;;25.81;59.92;94972.69;5077126;28;20481;-59
2023/07/23 00:32:53;;;;;;;11.63;4.90;;;25.10;91.00;;;25.76;60.09;94982.31;5078491;28;20472;-60
2023/07/23 00:35:20;;;;;;;12.50;5.27;;;25.10;91.10;;;25.74;59.65;94981.69;5076638;28;20481;-62
2023/07/23 00:37:48;;;;;;;20.03;4.97;;;25.10;91.00;;;25.73;59.57;94980.06;5081219;28;20973;-60
2023/07/23 00:40:15;;;;;;;16.27;5.17;;;25.10;91.00;;;25.71;59.90;94982.16;5075703;28;20549;-62
2023/07/23 00:42:42;;;;;;;13.07;4.87;;;25.00;91.10;;;25.69;59.79;94996.94;5080911;28;20453;-63
2023/07/23 00:45:10;;;;;;;20.13;6.33;;;25.00;91.10;;;25.65;59.55;94999.25;5074254;28;20998;-62
2023/07/23 00:47:38;;;;;;;15.13;5.50;;;25.00;91.20;;;25.62;59.67;94993.50;5079063;28;20533;-58
2023/07/23 00:50:07;;;;;;;20.73;4.97;;;24.90;91.50;;;25.56;59.96;94995.25;5077135;28;21010;-59
2023/07/23 00:52:34;;;;;;;18.03;5.77;;;24.90;91.30;;;25.52;59.99;95004.84;5071700;28;20449;-62
2023/07/23 00:55:02;;;;;;;15.40;5.40;;;24.90;91.20;;;25.49;59.54;95003.44;5081108;28;20465;-60
2023/07/23 00:57:29;;;;;;;12.00;5.33;;;24.80;90.90;;;25.48;59.41;95009.06;5075054;28;20795;-60
2023/07/23 00:59:57;;;;;;;28.00;6.47;;;24.80;90.80;;;25.45;59.05;94998.75;5082689;28;20568;-60
2023/07/23 01:02:25;;;;;;;17.47;5.67;;;24.80;90.70;;;25.43;58.54;94998.16;5073202;28;20526;-60
2023/07/23 01:04:54;;;;;;;20.00;6.37;;;24.80;90.50;;;25.40;58.62;94999.44;5078939;28;20546;-62
2023/07/23 01:07:21;;;;;;;18.43;6.07;;;24.70;90.50;;;25.37;58.63;95006.09;5077472;28;20467;-61
2023/07/23 01:09:49;;;;;;;23.00;6.17;;;24.70;90.50;;;25.36;58.61;95003.63;5072370;28;20442;-60
2023/07/23 01:12:17;;;;;;;25.90;6.20;;;24.70;90.30;;;25.34;58.70;95005.72;5079708;28;20449;-62
2023/07/23 01:14:44;;;;;;;18.73;6.27;;;24.70;90.20;;;25.33;58.33;95015.69;5076688;28;20481;-62
2023/07/23 01:17:12;;;;;;;20.60;6.50;;;24.70;90.10;;;25.32;57.63;95011.34;5074042;28;20550;-62
2023/07/23 01:19:39;;;;;;;26.27;6.57;;;24.70;90.00;;;25.31;57.82;95009.69;5076134;28;20498;-60
2023/07/23 01:22:08;;;;;;;14.73;4.70;;;24.70;89.60;;;25.31;57.59;95020.47;5074087;28;20512;-60
2023/07/23 01:24:35;;;;;;;25.57;5.87;;;24.70;89.40;;;25.30;57.86;95024.22;5082019;28;20538;-63
2023/07/23 01:27:03;;;;;;;25.60;6.40;;;24.60;89.00;;;25.28;57.76;95034.34;5076486;28;20800;-59
2023/07/23 01:29:30;;;;;;;20.93;5.90;;;24.60;88.90;;;25.30;57.37;95039.53;5081449;28;20445;-60
2023/07/23 01:31:57;;;;;;;18.37;6.10;;;24.60;88.70;;;25.26;57.74;95049.91;5072143;28;20473;-62
2023/07/23 01:34:24;;;;;;;18.00;6.27;;;24.60;88.90;;;25.24;57.75;95052.84;5077135;28;20966;-62
2023/07/23 01:36:52;;;;;;;20.60;5.60;;;24.60;89.10;;;25.22;57.92;95064.88;5071510;28;20509;-59
2023/07/23 01:39:20;;;;;;;27.40;6.60;;;24.50;89.10;;;25.17;57.90;95059.34;5079208;28;20526;-60
2023/07/23 01:41:48;;;;;;;19.77;5.23;;;24.50;89.10;;;25.14;57.82;95068.69;5074630;28;20481;-62
2023/07/23 01:44:15;;;;;;;17.10;5.80;;;24.50;89.30;;;25.10;58.40;95072.06;5076340;28;20461;-58
2023/07/23 01:46:42;;;;;;;29.07;6.17;;;24.40;89.90;;;25.04;58.41;95077.31;5077226;28;20569;-63
2023/07/23 01:49:09;;;;;;;16.23;5.27;;;24.40;90.30;;;24.98;58.66;95088.97;5076152;28;20454;-59
2023/07/23 01:51:37;;;;;;;15.37;5.73;;;24.30;90.30;;;24.93;58.89;95093.41;5074791;28;20790;-59
2023/07/23 01:54:04;;;;;;;23.30;5.70;;;24.30;90.70;;;24.90;59.50;95101.91;5071456;28;20448;-61
2023/07/23 01:56:33;;;;;;;16.73;5.70;;;24.30;91.10;;;24.88;59.70;95107.53;5074679;28;20591;-58
2023/07/23 01:59:01;;;;;;;20.70;5.37;;;24.20;91.10;;;24.85;59.38;95108.78;5079202;28;20456;-60
2023/07/23 02:01:29;;;;;;;22.70;6.40;;;24.20;91.00;;;24.83;59.47;95101.97;5075438;28;20506;-62
2023/07/23 02:03:56;;;;;;;22.90;6.13;;;24.20;91.30;;;24.82;59.59;95108.41;5076965;28;20479;-61
2023/07/23 02:06:24;;;;;;;21.40;5.50;;;24.20;91.70;;;24.80;60.76;95105.09;5076083;28;20945;-61
2023/07/23 02:08:51;;;;;;;16.97;5.30;;;24.20;92.20;;;24.79;61.21;95112.38;5076744;28;20450;-59
2023/07/23 02:11:18;;;;;;;13.27;6.00;;;24.20;92.80;;;24.80;61.86;95114.03;5078054;28;20466;-59
2023/07/23 02:13:47;;;;;;;28.27;7.90;;;24.20;93.40;;;24.83;62.27;95126.19;5074223;28;20451;-64
2023/07/23 02:16:17;;;;;;;27.30;8.70;;;24.20;94.00;;;24.84;62.27;95117.88;5075653;28;20470;-61
2023/07/23 02:18:45;;;;;;;37.40;8.60;;;24.20;94.30;;;24.89;62.36;95117.22;5073677;28;20491;-60
2023/07/23 02:21:12;;;;;;;20.60;6.60;;;24.20;94.60;;;24.93;62.77;95125.69;5074517;28;20469;-62
2023/07/23 02:23:39;;;;;;;17.87;7.63;;;24.30;95.00;;;24.95;63.05;95132.47;5074492;28;20454;-63
2023/07/23 02:26:06;;;;;;;11.87;7.47;;;24.30;95.40;;;24.96;62.79;95130.63;5077901;28;20489;-59
2023/07/23 02:28:34;;;;;;;18.73;8.27;;;24.30;95.40;;;24.94;63.23;95147.00;5073608;28;20454;-61
2023/07/23 02:31:02;;;;;;;15.03;7.10;;;24.30;95.40;;;24.93;63.03;95147.22;5075243;28;20469;-63
2023/07/23 02:33:29;;;;;;;9.53;7.17;;;24.30;95.60;;;24.91;62.97;95147.44;5074492;28;20946;-61
2023/07/23 02:35:57;;;;;;;22.53;8.37;;;24.30;95.70;;;24.91;63.05;95147.44;5077310;28;20474;-60
2023/07/23 02:38:24;;;;;;;27.47;7.87;;;24.30;95.50;;;24.89;62.56;95141.44;5073355;28;20994;-62
2023/07/23 02:40:56;;;;;;;19.87;9.13;;;24.30;95.70;;;24.88;62.97;95146.00;5081364;28;20469;-62
2023/07/23 02:43:23;;;;;;;23.20;8.00;;;24.30;95.80;;;24.86;63.23;95141.88;5073555;28;20502;-59
2023/07/23 02:45:51;;;;;;;18.50;8.07;;;24.20;95.80;;;24.86;62.86;95141.88;5079139;28;20500;-59
2023/07/23 02:48:19;;;;;;;21.23;8.87;;;24.20;95.90;;;24.83;63.25;95142.31;5072158;28;20474;-59
2023/07/23 02:50:46;;;;;;;16.40;8.47;;;24.20;96.10;;;24.82;63.43;95149.59;5078473;28;20907;-62
2023/07/23 02:53:14;;;;;;;19.00;9.67;;;24.20;96.10;;;24.81;63.25;95155.19;5070899;28;20496;-63
2023/07/23 02:55:41;;;;;;;16.50;9.63;;;24.20;96.40;;;24.79;64.42;95149.22;5074506;28;20901;-61
2023/07/23 02:58:08;;;;;;;18.17;9.97;;;24.20;97.00;;;24.76;63.21;95146.97;5074024;28;20535;-60
2023/07/23 03:00:37;;;;;;;21.27;10.43;;;24.20;96.70;;;24.76;64.15;95157.72;5078068;28;20831;-58
2023/07/23 03:03:06;;;;;;;16.43;10.00;;;24.20;97.00;;;24.74;64.07;95157.13;5077587;28;20460;-61
2023/07/23 03:05:35;;;;;;;21.00;10.70;;;24.10;97.00;;;24.73;64.22;95150.09;5073376;28;20927;-62
2023/07/23 03:08:03;;;;;;;23.33;12.17;;;24.10;97.20;;;24.72;63.78;95151.94;5077131;28;20445;-59
2023/07/23 03:10:31;;;;;;;15.57;10.73;;;24.10;97.20;;;24.70;64.51;95160.25;5075849;28;20560;-61
2023/07/23 03:12:58;;;;;;;13.37;9.70;;;24.10;97.60;;;24.69;64.47;95152.41;5075901;28;20942;-61
2023/07/23 03:15:25;;;;;;;19.43;10.20;;;24.10;97.60;;;24.68;64.29;95146.19;5071844;28;20592;-62
2023/07/23 03:17:52;;;;;;;27.93;11.80;;;24.10;97.80;;;24.67;65.33;95146.44;5072512;28;20512;-61
2023/07/23 03:20:20;;;;;;;17.50;10.60;;;24.00;98.20;;;24.66;64.88;95152.84;5071866;28;21012;-58
2023/07/23 03:22:48;;;;;;;22.53;10.80;;;24.00;98.00;;;24.65;64.88;95149.34;5077355;28;20457;-59
2023/07/23 03:25:16;;;;;;;17.83;10.83;;;24.00;98.10;;;24.66;64.63;95155.53;5074121;28;20994;-58
2023/07/23 03:27:44;;;;;;;21.73;10.90;;;24.00;98.10;;;24.65;64.72;95145.84;5072599;28;20965;-59
2023/07/23 03:30:12;;;;;;;19.60;10.57;;;24.00;98.30;;;24.65;64.98;95157.41;5071942;28;20478;-57
2023/07/23 03:32:39;;;;;;;19.93;11.20;;;24.00;98.30;;;24.66;64.85;95151.00;5076812;28;20503;-62
2023/07/23 03:35:07;;;;;;;28.73;11.10;;;24.00;98.50;;;24.67;65.36;95157.19;5070060;28;20976;-62
2023/07/23 03:37:34;;;;;;;19.07;10.03;;;24.00;98.50;;;24.67;64.66;95158.00;5073348;28;20471;-59
2023/07/23 03:40:03;;;;;;;22.97;10.20;;;24.00;98.50;;;24.68;65.17;95158.84;5070395;28;20768;-59
2023/07/23 03:42:31;;;;;;;14.47;9.53;;;24.00;98.50;;;24.68;65.15;95156.97;5075091;28;20456;-59
2023/07/23 03:44:58;;;;;;;13.47;9.37;;;24.00;98.50;;;24.69;65.02;95157.78;5073007;28;20470;-62
2023/07/23 03:47:25;;;;;;;15.23;9.53;;;24.00;98.50;;;24.69;65.04;95168.53;5077753;28;20500;-62
2023/07/23 03:49:52;;;;;;;14.43;10.33;;;24.10;98.60;;;24.69;65.36;95174.75;5075944;28;20510;-62
2023/07/23 03:52:20;;;;;;;16.37;9.63;;;24.10;98.60;;;24.71;65.34;95174.53;5071606;28;20445;-59
2023/07/23 03:54:47;;;;;;;12.90;10.23;;;24.10;98.60;;;24.70;64.68;95165.63;5070838;28;20457;-62
2023/07/23 03:57:16;;;;;;;21.37;9.90;;;24.10;98.70;;;24.72;64.90;95161.91;5074961;28;20454;-62
2023/07/23 03:59:44;;;;;;;17.13;10.40;;;24.10;98.70;;;24.72;65.32;95176.16;5075594;28;20560;-58
2023/07/23 04:02:12;;;;;;;18.73;10.00;;;24.10;98.70;;;24.74;64.49;95175.94;5077847;28;20441;-63
2023/07/23 04:04:39;;;;;;;20.40;9.73;;;24.10;98.60;;;24.75;64.59;95164.97;5076037;28;20718;-62
2023/07/23 04:07:07;;;;;;;11.20;9.70;;;24.10;98.60;;;24.76;64.75;95153.16;5080964;28;20497;-62
2023/07/23 04:09:34;;;;;;;21.07;10.20;;;24.10;98.60;;;24.78;64.36;95163.69;5076131;28;20531;-62
2023/07/23 04:12:02;;;;;;;21.20;11.23;;;24.20;98.60;;;24.79;64.30;95165.34;5081908;28;20449;-60
2023/07/23 04:14:30;;;;;;;16.47;10.90;;;24.20;98.60;;;24.79;64.41;95168.88;5075812;28;20442;-59
2023/07/23 04:16:58;;;;;;;22.13;11.00;;;24.20;98.60;;;24.81;64.15;95171.34;5076569;28;20838;-59
2023/07/23 04:19:25;;;;;;;21.80;13.43;;;24.20;98.60;;;24.83;64.78;95169.22;5074538;28;20465;-63
2023/07/23 04:21:56;;;;;;;23.07;11.83;;;24.20;98.60;;;24.85;64.73;95167.97;5076923;28;20543;-59
2023/07/23 04:24:23;;;;;;;20.33;12.67;;;24.20;98.60;;;24.89;63.88;95168.34;5081574;28;20468;-63
2023/07/23 04:26:50;;;;;;;16.00;11.27;;;24.30;98.60;;;24.93;63.92;95169.56;5075423;28;21175;-63
2023/07/23 04:29:18;;;;;;;18.37;11.20;;;24.30;98.50;;;24.98;64.25;95177.78;5081228;28;20499;-61
2023/07/23 04:31:46;;;;;;;17.97;12.07;;;24.30;98.40;;;25.03;64.16;95174.41;5074738;28;20470;-63
2023/07/23 04:34:14;;;;;;;17.80;12.70;;;24.40;98.40;;;25.06;63.65;95177.47;5079100;28;20450;-62
2023/07/23 04:36:41;;;;;;;20.03;13.20;;;24.40;98.20;;;25.13;63.56;95179.28;5077137;28;20478;-59
2023/07/23 04:39:09;;;;;;;20.80;13.07;;;24.40;98.10;;;25.18;63.30;95184.84;5078412;28;20526;-62
2023/07/23 04:41:37;;;;;;;17.00;11.93;;;24.50;98.10;;;25.23;63.21;95184.97;5077069;28;20477;-63
2023/07/23 04:44:04;;;;;;;17.97;13.33;;;24.60;98.00;;;25.29;63.27;95178.72;5079409;28;20484;-62
2023/07/23 04:46:32;;;;;;;26.50;12.20;;;24.60;97.90;;;25.34;63.28;95176.19;5074815;28;20497;-62
2023/07/23 04:49:00;;;;;;;28.27;11.70;;;24.70;97.80;;;25.39;62.94;95172.81;5082407;28;20473;-60
2023/07/23 04:51:28;;;;;;;27.73;13.10;;;24.70;97.80;;;25.46;62.83;95188.91;5074198;28;21024;-62
2023/07/23 04:53:55;;;;;;;21.10;12.60;;;24.80;97.70;;;25.52;62.97;95186.13;5075415;28;20507;-62
2023/07/23 04:56:22;;;;;;;21.60;12.40;;;24.80;97.70;;;25.60;62.47;95179.63;5073458;28;20470;-62
2023/07/23 04:58:49;;;;;;;21.43;11.17;;;24.90;97.50;;;25.65;62.43;95182.44;5080719;28;20942;-62
2023/07/23 05:01:17;;;;;;;14.47;11.10;;;25.00;97.40;;;25.74;61.88;95185.66;5073065;28;21072;-61
2023/07/23 05:03:44;;;;;;;21.63;13.37;;;25.10;97.20;;;25.82;62.21;95187.22;5078929;28;20953;-60
2023/07/23 05:06:13;;;;;;;20.47;12.70;;;25.10;97.10;;;25.89;62.00;95196.84;5076041;28;20565;-58
2023/07/23 05:08:40;;;;;;;20.00;12.57;;;25.20;97.00;;;25.94;61.79;95188.09;5078850;28;20980;-62
2023/07/23 05:11:07;;;;;;;19.37;12.10;;;25.30;97.00;;;26.03;61.50;95194.84;5079206;28;20545;-59
2023/07/23 05:13:35;;;;;;;20.23;12.73;;;25.40;96.70;;;26.08;61.55;95186.88;5078040;28;20523;-62
2023/07/23 05:16:03;;;;;;;21.43;11.90;;;25.40;96.60;;;26.17;61.11;95191.97;5074971;28;20473;-62
2023/07/23 05:18:30;;;;;;;20.23;11.60;;;25.50;96.50;;;26.22;61.40;95192.91;5074227;28;20457;-62
2023/07/23 05:20:58;;;;;;;17.10;11.87;;;25.60;96.50;;;26.30;61.31;95197.13;5074738;28;20620;-59
2023/07/23 05:23:26;;;;;;;18.53;12.17;;;25.60;96.50;;;26.34;61.09;95195.63;5077962;28;20454;-59
2023/07/23 05:25:56;;;;;;;16.70;10.83;;;25.70;96.40;;;26.44;61.09;95200.47;5078843;28;20461;-64
2023/07/23 05:28:23;;;;;;;12.57;10.03;;;25.70;96.20;;;26.57;60.78;95200.25;5072331;28;20474;-60
2023/07/23 05:30:50;;;;;;;14.10;11.40;;;25.90;96.30;;;26.69;60.70;95208.38;5078499;28;20474;-60
2023/07/23 05:33:18;;;;;;;14.37;11.83;;;25.90;96.10;;;26.81;60.58;95203.81;5075897;28;20451;-63
2023/07/23 05:35:45;;;;;;;15.30;11.97;;;26.10;96.10;;;26.94;60.19;95208.19;5078309;28;20477;-60
2023/07/23 05:38:12;;;;;;;14.37;12.00;;;26.20;95.90;;;27.09;59.81;95209.59;5075573;28;20871;-59
2023/07/23 05:40:41;;;;;;;25.53;12.00;;;26.30;95.60;;;27.26;59.38;95207.00;5078248;28;20475;-59
2023/07/23 05:43:09;;;;;;;18.87;12.63;;;26.50;95.40;;;27.42;59.10;95202.78;5073669;28;21000;-59
2023/07/23 05:45:37;;;;;;;15.83;12.40;;;26.60;95.20;;;27.62;58.78;95210.50;5081280;28;20931;-60
2023/07/23 05:48:05;;;;;;;20.60;13.70;;;26.80;94.80;;;27.78;58.79;95198.94;5073036;28;20517;-63
2023/07/23 05:50:32;;;;;;;22.67;13.20;;;27.00;94.40;;;27.95;57.73;95204.44;5080979;28;20903;-62
2023/07/23 05:53:00;;;;;;;22.77;12.70;;;27.20;94.20;;;28.12;58.17;95199.09;5070652;28;20437;-63
2023/07/23 05:55:27;;;;;;;14.83;11.23;;;27.30;93.90;;;28.29;57.22;95207.25;5074919;28;20526;-61
2023/07/23 05:57:56;;;;;;;27.30;11.87;;;27.50;93.70;;;28.47;56.72;95203.47;5074763;28;20458;-61
2023/07/23 06:00:23;;;;;;;16.37;12.07;;;27.60;93.30;;;28.63;57.07;95210.03;5080689;28;20482;-60
2023/07/23 06:02:51;;;;;;;19.60;10.17;;;27.80;93.10;;;28.79;56.34;95201.06;5075471;28;20936;-62
2023/07/23 06:05:18;;;;;;;18.93;10.80;;;28.00;92.70;;;28.93;56.50;95201.56;5076691;28;20485;-59
2023/07/23 06:07:46;;;;;;;16.13;10.23;;;28.10;92.20;;;29.06;55.40;95207.69;5075655;28;20539;-62
2023/07/23 06:10:13;;;;;;;19.13;10.53;;;28.30;91.80;;;29.23;55.47;95208.50;5080455;28;20469;-59
2023/07/23 06:12:41;;;;;;;16.00;9.93;;;28.40;91.90;;;29.40;55.60;95202.25;5074382;28;20208;-59
2023/07/23 06:15:10;;;;;;;19.33;10.43;;;28.60;91.40;;;29.58;54.65;95201.94;5074643;28;20220;-63
2023/07/23 06:17:38;;;;;;;10.83;9.10;;;28.70;91.10;;;29.75;53.60;95198.38;5076023;28;20218;-63
2023/07/23 06:20:07;;;;;;;16.53;10.30;;;28.90;90.10;;;29.91;52.95;95202.09;5073144;28;20223;-64
2023/07/23 06:22:34;;;;;;;14.77;9.20;;;29.00;89.20;;;30.03;52.30;95194.66;5073752;28;20203;-60
2023/07/23 06:25:02;;;;;;;19.73;10.43;;;29.20;87.50;;;30.17;52.67;95192.34;5070594;28;20219;-60
2023/07/23 06:27:29;;;;;;;14.20;8.20;;;29.30;86.40;;;30.32;51.52;95197.09;5077629;28;20226;-64
2023/07/23 06:29:56;;;;;;;17.10;10.20;;;29.50;85.80;;;30.50;51.94;95196.75;5074770;28;20223;-61
2023/07/23 06:32:25;;;;;;;11.30;8.40;;;29.60;84.90;;;30.68;51.13;95202.91;5078072;28;20199;-62
2023/07/23 06:34:52;;;;;;;14.57;8.77;;;29.80;83.30;;;30.86;49.61;95201.69;5073015;28;20689;-61
2023/07/23 06:37:20;;;;;;;15.70;8.82;;;29.90;82.50;;;31.03;50.19;95196.97;5077973;28;20199;-60
2023/07/23 06:39:47;;;;;;;11.50;8.23;;;30.10;81.30;;;31.21;49.20;95197.63;5077007;28;20576;-59
2023/07/23 06:42:14;;;;;;;19.57;9.10;;;30.30;80.60;;;31.37;48.62;95196.66;5077118;28;20586;-60
2023/07/23 06:44:42;;;;;;;20.52;8.52;;;30.50;79.50;;;31.51;48.06;95194.28;5076342;28;20262;-60
2023/07/23 06:47:09;;;;;;;11.30;8.40;;;30.60;78.80;;;31.63;47.44;95183.19;5076373;28;20231;-59
2023/07/23 06:49:37;;;;;;;19.58;8.38;;;30.80;76.60;;;31.76;47.55;95195.47;5076660;28;20212;-62
2023/07/23 06:52:06;;;;;;;14.65;8.25;;;30.80;76.60;;;31.91;47.17;95205.59;5073344;28;20196;-60
2023/07/23 06:54:37;;;;;;;9.48;8.25;;;31.00;76.00;;;32.05;46.87;95195.03;5072250;28;20293;-60
2023/07/23 06:57:06;;;;;;;15.77;8.23;;;31.10;75.40;;;32.22;46.49;95189.41;5078202;28;20218;-60
2023/07/23 06:59:33;;;;;;;13.80;8.20;;;31.30;74.60;;;32.36;46.14;95193.22;5078713;28;20683;-61
2023/07/23 07:02:00;;;;;;;14.30;8.63;;;31.50;74.10;;;32.52;45.88;95196.81;5076464;28;20207;-62
2023/07/23 07:04:27;;;;;;;9.63;7.00;;;31.60;73.40;;;32.68;45.27;95197.66;5072395;28;20278;-64
2023/07/23 07:06:56;;;;;;;14.20;7.05;;;31.70;72.30;;;32.84;44.86;95201.19;5080156;28;20235;-59
2023/07/23 07:09:23;;;;;;;9.25;6.25;;;31.90;70.70;;;33.00;43.03;95205.56;5071065;28;20208;-60
2023/07/23 07:11:51;;;;;;;13.15;6.22;;;32.10;68.20;;;33.14;42.94;95214.00;5079639;28;20288;-58
2023/07/23 07:14:18;;;;;;;7.18;6.35;;;32.20;67.40;;;33.29;42.52;95209.63;5077198;28;20260;-62
2023/07/23 07:16:45;;;;;;;10.07;5.40;;;32.30;67.30;;;33.40;40.07;95206.63;5073073;28;20722;-63
2023/07/23 07:19:13;;;;;;;5.93;5.32;;;32.50;63.30;;;33.46;41.72;95201.94;5074103;28;20574;-60
2023/07/23 07:21:40;;;;;;;11.05;6.93;;;32.60;65.10;;;33.58;41.77;95210.66;5072008;28;20263;-63
2023/07/23 07:24:09;;;;;;;6.40;5.80;;;32.70;64.60;;;33.74;40.79;95210.63;5076936;28;20824;-62
2023/07/23 07:26:36;;;;;;;8.27;5.88;;;32.80;64.20;;;33.87;41.23;95207.31;5075449;28;20223;-62
2023/07/23 07:29:03;;;;;;;13.02;6.28;;;32.90;64.00;;;34.01;39.85;95202.06;5075762;28;20586;-61
2023/07/23 07:31:31;;;;;;;11.88;5.50;;;33.10;62.50;;;34.16;39.35;95211.25;5077011;28;20228;-59
2023/07/23 07:33:59;;;;;;;36.35;8.05;;;33.20;61.20;;;34.25;39.27;95206.88;5072687;28;20283;-63
2023/07/23 07:36:26;;;;;;;13.60;6.00;;;33.30;60.80;;;34.37;38.63;95210.09;5079176;28;20239;-64
2023/07/23 07:38:54;;;;;;;16.85;5.53;;;33.50;59.90;;;34.51;37.95;95204.81;5077883;28;20249;-61
2023/07/23 07:41:23;;;;;;;6.82;6.22;;;33.60;59.20;;;34.64;38.22;95197.88;5080307;28;20280;-62
2023/07/23 07:43:50;;;;;;;7.15;6.43;;;33.70;58.70;;;34.76;38.31;95206.56;5079876;28;20683;-62
2023/07/23 07:46:18;;;;;;;7.60;6.47;;;33.80;58.50;;;34.85;38.05;95204.03;5079301;28;20721;-63
2023/07/23 07:48:45;;;;;;;11.90;7.00;;;33.90;58.10;;;34.94;37.00;95202.31;5079247;28;20238;-63
2023/07/23 07:51:12;;;;;;;12.10;6.22;;;34.00;57.20;;;35.02;36.44;95209.09;5076622;28;20228;-60
2023/07/23 07:53:39;;;;;;;7.15;5.90;;;34.10;56.30;;;35.06;36.09;95214.78;5075467;28;20307;-60
2023/07/23 07:56:13;;;;;;;7.78;5.95;;;34.20;56.20;;;35.17;36.27;95216.34;5076103;28;20228;-59
2023/07/23 07:58:44;;;;;;;6.80;5.88;;;34.20;56.40;;;35.32;35.54;95205.28;5082654;28;20234;-60
2023/07/23 08:01:12;;;;;;;6.18;5.68;;;34.40;55.60;;;35.44;35.39;95204.06;5077744;28;20330;-58
2023/07/23 08:03:40;;;;;;;19.52;7.50;;;34.50;55.70;;;35.47;35.38;95207.03;5080594;28;20207;-63
2023/07/23 08:06:08;;;;;;;12.05;6.55;;;34.60;53.80;;;35.51;33.95;95204.56;5076585;28;20220;-60
2023/07/23 08:08:37;;;;;;;7.43;6.03;;;34.60;53.40;;;35.54;34.45;95204.78;5080009;28;20730;-59
2023/07/23 08:11:06;;;;;;;9.30;6.20;;;34.70;53.40;;;35.57;35.49;95208.03;5079291;28;20652;-60
2023/07/23 08:13:34;;;;;;;20.10;6.38;;;34.70;54.20;;;35.64;34.69;95206.56;5079854;28;20218;-59
2023/07/23 08:16:03;;;;;;;12.90;6.05;;;34.80;54.10;;;35.67;34.31;95211.47;5075325;28;20231;-62
2023/07/23 08:18:31;;;;;;;7.75;5.88;;;34.80;52.80;;;35.69;33.82;95200.22;5079241;28;20601;-63
2023/07/23 08:20:59;;;;;;;5.55;5.00;;;34.80;52.70;;;35.72;33.30;95211.41;5073408;28;20231;-59
2023/07/23 08:23:27;;;;;;;8.13;6.15;;;34.90;51.90;;;35.74;34.74;95205.63;5079737;28;20199;-60
2023/07/23 08:25:56;;;;;;;10.90;6.57;;;34.90;53.20;;;35.83;34.04;95205.84;5080026;28;20664;-63
2023/07/23 08:28:25;;;;;;;12.20;6.47;;;35.00;52.80;;;35.94;33.52;95201.88;5075756;28;20239;-62
2023/07/23 08:30:54;;;;;;;8.07;6.10;;;35.10;51.60;;;36.02;34.29;95208.63;5079475;28;20303;-64
2023/07/23 08:33:23;;;;;;;23.13;6.85;;;35.20;52.50;;;36.10;33.74;95210.72;5074900;28;20207;-63
2023/07/23 08:35:51;;;;;;;17.55;6.30;;;35.30;52.50;;;36.22;33.54;95202.06;5083587;28;20273;-62
2023/07/23 08:38:19;;;;;;;11.90;5.93;;;35.30;52.30;;;36.39;32.68;95198.84;5073938;28;20200;-61
2023/07/23 08:40:47;;;;;;;9.55;5.85;;;35.50;51.30;;;36.52;33.26;95194.56;5082384;28;20313;-63
2023/07/23 08:43:52;;;;;;;11.48;6.05;;;35.60;51.70;;;36.70;32.73;95190.16;5073602;28;20639;-63
2023/07/23 08:46:24;;;;;;;7.22;6.47;;;35.80;51.80;;;36.89;32.45;95193.72;5066328;28;20720;-59
2023/07/23 08:49:08;;;;;;;11.18;6.22;;;35.90;50.60;;;37.04;31.64;95191.81;5079659;28;20265;-63
2023/07/23 08:51:41;;;;;;;9.07;6.50;;;36.10;49.80;;;37.09;32.33;95187.06;5077078;28;20266;-64
2023/07/23 08:54:08;;;;;;;16.60;6.53;;;36.20;50.50;;;37.18;30.37;95191.84;5076670;28;20291;-64
2023/07/23 08:56:36;;;;;;;13.60;6.28;;;36.30;47.70;;;37.11;31.91;95187.56;5077467;28;20598;-60
2023/07/23 08:59:05;;;;;;;8.93;6.05;;;36.30;49.10;;;37.17;31.12;95187.47;5081220;28;20208;-61
2023/07/23 09:01:34;;;;;;;9.02;7.50;;;36.30;48.50;;;37.25;30.07;95178.59;5076962;28;20322;-61
2023/07/23 09:04:04;;;;;;;11.20;6.53;;;36.30;47.30;;;37.23;30.38;95187.13;5076282;28;20691;-59
2023/07/23 09:06:32;;;;;;;16.90;5.93;;;36.40;47.70;;;37.19;30.85;95177.03;5078912;28;20708;-61
2023/07/23 09:09:07;;;;;;;9.45;5.97;;;36.40;47.90;;;37.19;30.05;95186.06;5076293;28;20232;-60
2023/07/23 09:11:34;;;;;;;10.10;6.47;;;36.30;47.00;;;37.22;31.38;95187.41;5075789;28;20223;-63
2023/07/23 09:14:03;;;;;;;9.15;6.30;;;36.40;48.40;;;37.30;30.84;95192.22;5076261;28;20226;-60
2023/07/23 09:16:30;;;;;;;12.48;6.57;;;36.40;47.60;;;37.31;30.83;95194.66;5079095;28;20546;-63
2023/07/23 09:18:57;;;;;;;8.82;6.55;;;36.40;47.80;;;37.31;29.41;95189.16;5073492;28;20208;-59
2023/07/23 09:21:27;;;;;;;13.73;6.53;;;36.40;45.20;;;37.24;29.95;95193.41;5078295;28;20223;-63
2023/07/23 09:23:55;;;;;;;8.85;6.70;;;36.40;46.70;;;37.14;30.09;95197.94;5072752;28;20195;-61
2023/07/23 09:26:24;;;;;;;9.68;5.95;;;36.30;46.90;;;37.11;30.14;95192.25;5080028;28;20235;-60
2023/07/23 09:28:53;;;;;;;8.73;7.00;;;36.30;47.00;;;37.13;30.20;95192.75;5075077;28;20305;-60
2023/07/23 09:31:26;;;;;;;13.00;8.55;;;36.30;47.10;;;37.20;29.22;95190.44;5075208;28;20249;-60
2023/07/23 09:33:57;;;;;;;10.02;7.90;;;36.30;45.50;;;37.16;29.77;95185.88;5078576;28;20278;-64
2023/07/23 09:36:27;;;;;;;7.80;6.38;;;36.30;46.20;;;37.10;29.08;95187.88;5075635;28;20663;-60
2023/07/23 09:38:58;;;;;;;9.40;6.72;;;36.30;45.60;;;37.04;29.29;95189.88;5079016;28;20259;-63
2023/07/23 09:41:30;;;;;;;9.40;7.07;;;36.30;45.70;;;37.06;30.16;95182.19;5074392;28;20648;-62
2023/07/23 09:44:00;;;;;;;13.77;7.18;;;36.20;46.30;;;37.01;29.28;95185.00;5079395;28;20672;-62
2023/07/23 09:46:28;;;;;;;7.07;6.38;;;36.20;45.70;;;36.92;30.22;95189.53;5075173;28;20286;-62
2023/07/23 09:48:55;;;;;;;11.23;6.78;;;36.10;46.30;;;36.83;30.37;95186.69;5078666;28;20746;-59
2023/07/23 09:51:23;;;;;;;7.53;6.47;;;36.00;46.20;;;36.75;30.54;95182.69;5075378;28;20599;-60
2023/07/23 09:53:51;;;;;;;12.25;7.03;;;35.90;46.80;;;36.76;30.50;95189.81;5073491;28;20206;-59
2023/07/23 09:56:19;;;;;;;11.35;6.72;;;35.90;47.30;;;36.79;30.39;95177.44;5076174;28;20258;-60
2023/07/23 09:58:48;;;;;;;12.00;7.80;;;35.90;47.10;;;36.76;29.82;95167.06;5077225;28;20207;-59
2023/07/23 10:01:17;;;;;;;15.10;7.60;;;35.90;46.10;;;36.74;30.43;95175.56;5076456;28;20236;-59
2023/07/23 10:03:45;;;;;;;13.73;8.23;;;35.90;46.80;;;36.74;30.43;95175.56;5078365;28;20322;-61
2023/07/23 10:06:12;;;;;;;16.02;8.23;;;35.90;47.10;;;36.78;30.65;95170.34;5074349;28;20255;-63
2023/07/23 10:08:43;;;;;;;33.08;14.15;;;35.90;47.20;;;36.82;29.94;95179.56;5079279;28;20300;-63
2023/07/23 10:11:12;;;;;;;19.63;10.05;;;35.90;46.10;;;36.78;29.40;95182.09;5074243;28;20232;-61
2023/07/23 10:13:40;;;;;;;17.83;9.32;;;35.90;45.80;;;36.74;30.04;95181.06;5080059;28;20199;-62
2023/07/23 10:16:09;;;;;;;13.57;9.65;;;35.90;45.80;;;36.80;29.35;95172.78;5074629;28;20800;-60